sensor_id;sensor_type;location;lat;lon;timestamp;P1;durP1;ratioP1;P2;durP2;ratioP2
72156;SDS011;60035;52.122;5.406;2022-12-31T00:00:05;3.17;;;1.27;;
72156;SDS011;60035;52.122;5.406;2022-12-31T00:02:33;6.50;;;1.83;;
72156;SDS011;60035;52.122;5.406;2022-12-31T00:04:59;4.22;;;1.30;;
72156;SDS011;60035;52.122;5.406;2022-12-31T00:07:26;7.65;;;1.98;;
72156;SDS011;60035;52.122;5.406;2022-12-31T00:09:53;4.70;;;2.03;;
72156;SDS011;60035;52.122;5.406;2022-12-31T00:12:19;5.65;;;2.08;;
72156;SDS011;60035;52.122;5.406;2022-12-31T00:14:46;4.95;;;1.98;;
72156;SDS011;60035;52.122;5.406;2022-12-31T00:17:13;7.03;;;2.30;;
72156;SDS011;60035;52.122;5.406;2022-12-31T00:19:39;8.38;;;3.20;;
72156;SDS011;60035;52.122;5.406;2022-12-31T00:22:06;7.28;;;2.50;;
72156;SDS011;60035;52.122;5.406;2022-12-31T00:24:32;5.72;;;2.83;;
72156;SDS011;60035;52.122;5.406;2022-12-31T00:27:00;6.95;;;3.00;;
72156;SDS011;60035;52.122;5.406;2022-12-31T00:29:27;8.30;;;3.13;;
72156;SDS011;60035;52.122;5.406;2022-12-31T00:31:53;6.70;;;2.60;;
72156;SDS011;60035;52.122;5.406;2022-12-31T00:34:20;7.50;;;2.97;;
72156;SDS011;60035;52.122;5.406;2022-12-31T00:36:47;8.20;;;3.10;;
72156;SDS011;60035;52.122;5.406;2022-12-31T00:39:13;8.10;;;2.42;;
72156;SDS011;60035;52.122;5.406;2022-12-31T00:41:40;5.50;;;2.13;;
72156;SDS011;60035;52.122;5.406;2022-12-31T00:44:09;4.57;;;1.88;;
72156;SDS011;60035;52.122;5.406;2022-12-31T00:46:37;6.10;;;2.10;;
72156;SDS011;60035;52.122;5.406;2022-12-31T00:49:05;6.03;;;2.05;;
72156;SDS011;60035;52.122;5.406;2022-12-31T00:51:32;5.75;;;2.55;;
72156;SDS011;60035;52.122;5.406;2022-12-31T00:53:59;5.05;;;2.25;;
72156;SDS011;60035;52.122;5.406;2022-12-31T00:56:27;5.22;;;2.05;;
72156;SDS011;60035;52.122;5.406;2022-12-31T00:58:55;5.70;;;1.95;;
72156;SDS011;60035;52.122;5.406;2022-12-31T01:01:28;4.20;;;1.73;;
72156;SDS011;60035;52.122;5.406;2022-12-31T01:04:03;5.57;;;2.13;;
72156;SDS011;60035;52.122;5.406;2022-12-31T01:06:38;3.67;;;1.50;;
72156;SDS011;60035;52.122;5.406;2022-12-31T01:09:05;5.90;;;2.30;;
72156;SDS011;60035;52.122;5.406;2022-12-31T01:11:33;3.42;;;1.52;;
72156;SDS011;60035;52.122;5.406;2022-12-31T01:16:35;6.03;;;1.80;;
72156;SDS011;60035;52.122;5.406;2022-12-31T01:19:05;5.90;;;2.17;;
72156;SDS011;60035;52.122;5.406;2022-12-31T01:21:35;5.80;;;2.08;;
72156;SDS011;60035;52.122;5.406;2022-12-31T01:24:02;5.72;;;2.13;;
72156;SDS011;60035;52.122;5.406;2022-12-31T01:26:29;6.82;;;2.42;;
72156;SDS011;60035;52.122;5.406;2022-12-31T01:28:56;6.30;;;1.75;;
72156;SDS011;60035;52.122;5.406;2022-12-31T01:31:23;5.45;;;1.75;;
72156;SDS011;60035;52.122;5.406;2022-12-31T01:33:50;3.58;;;1.65;;
72156;SDS011;60035;52.122;5.406;2022-12-31T01:36:18;5.15;;;1.80;;
72156;SDS011;60035;52.122;5.406;2022-12-31T01:38:51;3.92;;;1.73;;
72156;SDS011;60035;52.122;5.406;2022-12-31T01:41:19;5.30;;;1.85;;
72156;SDS011;60035;52.122;5.406;2022-12-31T01:43:49;8.43;;;1.98;;
72156;SDS011;60035;52.122;5.406;2022-12-31T01:46:38;5.68;;;1.73;;
72156;SDS011;60035;52.122;5.406;2022-12-31T01:49:25;4.88;;;1.90;;
72156;SDS011;60035;52.122;5.406;2022-12-31T01:52:06;5.68;;;1.70;;
72156;SDS011;60035;52.122;5.406;2022-12-31T01:54:37;5.00;;;2.22;;
72156;SDS011;60035;52.122;5.406;2022-12-31T01:57:07;5.38;;;1.85;;
72156;SDS011;60035;52.122;5.406;2022-12-31T01:59:35;8.23;;;1.70;;
72156;SDS011;60035;52.122;5.406;2022-12-31T02:02:02;6.57;;;2.08;;
72156;SDS011;60035;52.122;5.406;2022-12-31T02:04:30;4.80;;;1.65;;
72156;SDS011;60035;52.122;5.406;2022-12-31T02:06:58;8.38;;;2.20;;
72156;SDS011;60035;52.122;5.406;2022-12-31T02:09:26;5.85;;;2.33;;
72156;SDS011;60035;52.122;5.406;2022-12-31T02:11:53;5.93;;;2.78;;
72156;SDS011;60035;52.122;5.406;2022-12-31T02:14:24;5.65;;;1.88;;
72156;SDS011;60035;52.122;5.406;2022-12-31T02:27:44;5.95;;;1.80;;
72156;SDS011;60035;52.122;5.406;2022-12-31T02:30:26;6.68;;;2.03;;
72156;SDS011;60035;52.122;5.406;2022-12-31T02:35:42;5.30;;;1.70;;
72156;SDS011;60035;52.122;5.406;2022-12-31T02:38:13;6.25;;;1.92;;
72156;SDS011;60035;52.122;5.406;2022-12-31T02:40:44;5.25;;;2.10;;
72156;SDS011;60035;52.122;5.406;2022-12-31T02:43:12;5.28;;;1.55;;
72156;SDS011;60035;52.122;5.406;2022-12-31T02:45:39;4.43;;;1.55;;
72156;SDS011;60035;52.122;5.406;2022-12-31T02:51:10;4.55;;;1.23;;
72156;SDS011;60035;52.122;5.406;2022-12-31T02:59:13;3.83;;;1.08;;
72156;SDS011;60035;52.122;5.406;2022-12-31T03:02:21;5.63;;;1.10;;
72156;SDS011;60035;52.122;5.406;2022-12-31T03:04:53;3.22;;;1.02;;
72156;SDS011;60035;52.122;5.406;2022-12-31T03:07:22;4.30;;;0.70;;
72156;SDS011;60035;52.122;5.406;2022-12-31T03:09:51;3.95;;;1.05;;
72156;SDS011;60035;52.122;5.406;2022-12-31T03:12:19;4.93;;;1.27;;
72156;SDS011;60035;52.122;5.406;2022-12-31T03:15:07;7.55;;;1.10;;
72156;SDS011;60035;52.122;5.406;2022-12-31T03:20:17;3.65;;;1.30;;
72156;SDS011;60035;52.122;5.406;2022-12-31T03:23:05;4.85;;;1.00;;
72156;SDS011;60035;52.122;5.406;2022-12-31T03:25:33;6.05;;;1.23;;
72156;SDS011;60035;52.122;5.406;2022-12-31T03:28:00;5.18;;;1.52;;
72156;SDS011;60035;52.122;5.406;2022-12-31T03:30:31;3.88;;;1.00;;
72156;SDS011;60035;52.122;5.406;2022-12-31T03:32:58;5.10;;;1.30;;
72156;SDS011;60035;52.122;5.406;2022-12-31T03:35:25;3.00;;;1.15;;
72156;SDS011;60035;52.122;5.406;2022-12-31T03:37:54;7.60;;;1.48;;
72156;SDS011;60035;52.122;5.406;2022-12-31T03:40:22;3.90;;;1.10;;
72156;SDS011;60035;52.122;5.406;2022-12-31T03:42:50;6.80;;;1.38;;
72156;SDS011;60035;52.122;5.406;2022-12-31T03:45:17;4.43;;;1.00;;
72156;SDS011;60035;52.122;5.406;2022-12-31T03:47:44;2.72;;;1.27;;
72156;SDS011;60035;52.122;5.406;2022-12-31T03:50:14;3.92;;;1.45;;
72156;SDS011;60035;52.122;5.406;2022-12-31T03:52:42;5.47;;;1.20;;
72156;SDS011;60035;52.122;5.406;2022-12-31T03:55:09;3.00;;;1.00;;
72156;SDS011;60035;52.122;5.406;2022-12-31T03:57:36;4.05;;;1.15;;
72156;SDS011;60035;52.122;5.406;2022-12-31T04:00:04;2.97;;;0.90;;
72156;SDS011;60035;52.122;5.406;2022-12-31T04:02:32;5.25;;;1.27;;
72156;SDS011;60035;52.122;5.406;2022-12-31T04:04:59;2.70;;;1.02;;
72156;SDS011;60035;52.122;5.406;2022-12-31T04:07:25;3.92;;;0.93;;
72156;SDS011;60035;52.122;5.406;2022-12-31T04:09:52;2.22;;;0.98;;
72156;SDS011;60035;52.122;5.406;2022-12-31T04:12:18;5.00;;;0.90;;
72156;SDS011;60035;52.122;5.406;2022-12-31T04:14:45;3.58;;;1.10;;
72156;SDS011;60035;52.122;5.406;2022-12-31T04:17:11;4.80;;;1.10;;
72156;SDS011;60035;52.122;5.406;2022-12-31T04:19:37;3.80;;;1.08;;
72156;SDS011;60035;52.122;5.406;2022-12-31T04:22:04;4.18;;;1.50;;
72156;SDS011;60035;52.122;5.406;2022-12-31T04:24:31;4.13;;;1.20;;
72156;SDS011;60035;52.122;5.406;2022-12-31T04:26:57;4.55;;;1.33;;
72156;SDS011;60035;52.122;5.406;2022-12-31T04:29:32;3.88;;;1.75;;
72156;SDS011;60035;52.122;5.406;2022-12-31T04:31:59;4.57;;;1.52;;
72156;SDS011;60035;52.122;5.406;2022-12-31T04:34:26;4.25;;;1.40;;
72156;SDS011;60035;52.122;5.406;2022-12-31T04:36:52;3.72;;;1.50;;
72156;SDS011;60035;52.122;5.406;2022-12-31T04:39:19;5.25;;;1.60;;
72156;SDS011;60035;52.122;5.406;2022-12-31T04:41:45;4.95;;;1.80;;
72156;SDS011;60035;52.122;5.406;2022-12-31T04:44:12;5.03;;;1.92;;
72156;SDS011;60035;52.122;5.406;2022-12-31T04:46:38;3.97;;;1.52;;
72156;SDS011;60035;52.122;5.406;2022-12-31T04:49:06;5.13;;;1.90;;
72156;SDS011;60035;52.122;5.406;2022-12-31T04:51:32;4.22;;;1.60;;
72156;SDS011;60035;52.122;5.406;2022-12-31T04:53:59;4.10;;;1.65;;
72156;SDS011;60035;52.122;5.406;2022-12-31T04:56:26;4.93;;;2.00;;
72156;SDS011;60035;52.122;5.406;2022-12-31T04:58:53;5.43;;;1.67;;
72156;SDS011;60035;52.122;5.406;2022-12-31T05:01:20;4.22;;;1.90;;
72156;SDS011;60035;52.122;5.406;2022-12-31T05:03:48;4.45;;;1.70;;
72156;SDS011;60035;52.122;5.406;2022-12-31T05:06:15;7.05;;;2.45;;
72156;SDS011;60035;52.122;5.406;2022-12-31T05:08:44;6.05;;;2.08;;
72156;SDS011;60035;52.122;5.406;2022-12-31T05:11:10;5.57;;;2.10;;
72156;SDS011;60035;52.122;5.406;2022-12-31T05:13:37;5.55;;;2.25;;
72156;SDS011;60035;52.122;5.406;2022-12-31T05:16:04;5.90;;;2.00;;
72156;SDS011;60035;52.122;5.406;2022-12-31T05:18:32;6.18;;;2.15;;
72156;SDS011;60035;52.122;5.406;2022-12-31T05:20:59;5.60;;;2.10;;
72156;SDS011;60035;52.122;5.406;2022-12-31T05:23:25;4.60;;;1.90;;
72156;SDS011;60035;52.122;5.406;2022-12-31T05:25:52;3.63;;;1.55;;
72156;SDS011;60035;52.122;5.406;2022-12-31T05:28:19;4.00;;;1.83;;
72156;SDS011;60035;52.122;5.406;2022-12-31T05:30:48;4.78;;;1.50;;
72156;SDS011;60035;52.122;5.406;2022-12-31T05:33:16;4.55;;;2.28;;
72156;SDS011;60035;52.122;5.406;2022-12-31T05:35:44;4.63;;;1.63;;
72156;SDS011;60035;52.122;5.406;2022-12-31T05:38:11;3.85;;;1.45;;
72156;SDS011;60035;52.122;5.406;2022-12-31T05:40:37;4.20;;;1.38;;
72156;SDS011;60035;52.122;5.406;2022-12-31T05:43:04;5.28;;;1.30;;
72156;SDS011;60035;52.122;5.406;2022-12-31T05:45:30;3.28;;;1.35;;
72156;SDS011;60035;52.122;5.406;2022-12-31T05:47:57;3.88;;;1.65;;
72156;SDS011;60035;52.122;5.406;2022-12-31T05:50:23;3.40;;;1.52;;
72156;SDS011;60035;52.122;5.406;2022-12-31T05:52:50;4.60;;;1.80;;
72156;SDS011;60035;52.122;5.406;2022-12-31T05:55:16;6.07;;;1.70;;
72156;SDS011;60035;52.122;5.406;2022-12-31T05:57:43;4.55;;;1.85;;
72156;SDS011;60035;52.122;5.406;2022-12-31T06:00:09;5.35;;;1.90;;
72156;SDS011;60035;52.122;5.406;2022-12-31T06:02:37;4.05;;;1.50;;
72156;SDS011;60035;52.122;5.406;2022-12-31T06:05:03;4.10;;;1.60;;
72156;SDS011;60035;52.122;5.406;2022-12-31T06:07:30;3.70;;;1.60;;
72156;SDS011;60035;52.122;5.406;2022-12-31T06:09:57;2.92;;;1.17;;
72156;SDS011;60035;52.122;5.406;2022-12-31T06:12:24;2.83;;;1.33;;
72156;SDS011;60035;52.122;5.406;2022-12-31T06:14:50;2.78;;;1.48;;
72156;SDS011;60035;52.122;5.406;2022-12-31T06:17:16;3.13;;;1.30;;
72156;SDS011;60035;52.122;5.406;2022-12-31T06:19:44;3.92;;;1.58;;
72156;SDS011;60035;52.122;5.406;2022-12-31T06:22:12;3.80;;;1.58;;
72156;SDS011;60035;52.122;5.406;2022-12-31T06:24:39;4.15;;;1.60;;
72156;SDS011;60035;52.122;5.406;2022-12-31T06:27:05;4.78;;;1.60;;
72156;SDS011;60035;52.122;5.406;2022-12-31T06:29:32;4.00;;;1.85;;
72156;SDS011;60035;52.122;5.406;2022-12-31T06:31:58;3.90;;;1.80;;
72156;SDS011;60035;52.122;5.406;2022-12-31T06:34:25;4.55;;;1.67;;
72156;SDS011;60035;52.122;5.406;2022-12-31T06:36:51;4.10;;;1.40;;
72156;SDS011;60035;52.122;5.406;2022-12-31T06:39:17;3.92;;;1.70;;
72156;SDS011;60035;52.122;5.406;2022-12-31T06:41:44;5.22;;;1.73;;
72156;SDS011;60035;52.122;5.406;2022-12-31T06:44:10;4.78;;;2.10;;
72156;SDS011;60035;52.122;5.406;2022-12-31T06:46:37;6.25;;;2.47;;
72156;SDS011;60035;52.122;5.406;2022-12-31T06:49:04;6.28;;;2.40;;
72156;SDS011;60035;52.122;5.406;2022-12-31T06:51:31;5.45;;;2.15;;
72156;SDS011;60035;52.122;5.406;2022-12-31T06:53:57;8.02;;;3.22;;
72156;SDS011;60035;52.122;5.406;2022-12-31T06:56:24;6.25;;;2.33;;
72156;SDS011;60035;52.122;5.406;2022-12-31T06:58:59;6.93;;;2.65;;
72156;SDS011;60035;52.122;5.406;2022-12-31T07:18:42;4.32;;;1.40;;
72156;SDS011;60035;52.122;5.406;2022-12-31T07:21:14;4.95;;;1.83;;
72156;SDS011;60035;52.122;5.406;2022-12-31T07:23:43;3.20;;;1.30;;
72156;SDS011;60035;52.122;5.406;2022-12-31T07:31:27;1.77;;;0.90;;
72156;SDS011;60035;52.122;5.406;2022-12-31T07:34:18;1.50;;;0.85;;
72156;SDS011;60035;52.122;5.406;2022-12-31T07:37:36;0.68;;;0.60;;
72156;SDS011;60035;52.122;5.406;2022-12-31T07:42:23;2.22;;;0.55;;
72156;SDS011;60035;52.122;5.406;2022-12-31T07:45:17;1.08;;;0.60;;
72156;SDS011;60035;52.122;5.406;2022-12-31T07:47:49;0.50;;;0.40;;
72156;SDS011;60035;52.122;5.406;2022-12-31T07:50:16;1.23;;;0.50;;
72156;SDS011;60035;52.122;5.406;2022-12-31T07:52:44;1.73;;;0.70;;
72156;SDS011;60035;52.122;5.406;2022-12-31T07:55:11;1.00;;;0.55;;
72156;SDS011;60035;52.122;5.406;2022-12-31T07:58:00;1.42;;;0.70;;
72156;SDS011;60035;52.122;5.406;2022-12-31T08:00:28;1.25;;;0.73;;
72156;SDS011;60035;52.122;5.406;2022-12-31T08:08:38;1.90;;;0.80;;
72156;SDS011;60035;52.122;5.406;2022-12-31T08:11:16;2.03;;;0.98;;
72156;SDS011;60035;52.122;5.406;2022-12-31T08:14:04;1.63;;;0.88;;
72156;SDS011;60035;52.122;5.406;2022-12-31T08:16:36;2.72;;;0.80;;
72156;SDS011;60035;52.122;5.406;2022-12-31T08:19:03;2.95;;;0.95;;
72156;SDS011;60035;52.122;5.406;2022-12-31T08:21:36;2.28;;;1.10;;
72156;SDS011;60035;52.122;5.406;2022-12-31T08:24:26;2.40;;;0.90;;
72156;SDS011;60035;52.122;5.406;2022-12-31T08:29:35;1.40;;;0.70;;
72156;SDS011;60035;52.122;5.406;2022-12-31T08:34:48;2.08;;;1.35;;
72156;SDS011;60035;52.122;5.406;2022-12-31T08:46:02;3.08;;;1.17;;
72156;SDS011;60035;52.122;5.406;2022-12-31T08:48:41;3.50;;;0.95;;
72156;SDS011;60035;52.122;5.406;2022-12-31T08:51:17;4.50;;;1.15;;
72156;SDS011;60035;52.122;5.406;2022-12-31T08:53:45;1.88;;;0.98;;
72156;SDS011;60035;52.122;5.406;2022-12-31T08:56:29;1.88;;;1.08;;
72156;SDS011;60035;52.122;5.406;2022-12-31T08:59:03;3.03;;;1.00;;
72156;SDS011;60035;52.122;5.406;2022-12-31T09:04:24;3.30;;;1.20;;
72156;SDS011;60035;52.122;5.406;2022-12-31T09:07:04;1.33;;;0.88;;
72156;SDS011;60035;52.122;5.406;2022-12-31T09:14:43;4.25;;;1.35;;
72156;SDS011;60035;52.122;5.406;2022-12-31T09:17:26;4.00;;;0.90;;
72156;SDS011;60035;52.122;5.406;2022-12-31T09:20:26;2.50;;;1.17;;
72156;SDS011;60035;52.122;5.406;2022-12-31T09:23:08;5.43;;;1.77;;
72156;SDS011;60035;52.122;5.406;2022-12-31T09:25:37;3.25;;;1.20;;
72156;SDS011;60035;52.122;5.406;2022-12-31T09:30:44;5.45;;;2.13;;
72156;SDS011;60035;52.122;5.406;2022-12-31T09:36:07;4.65;;;1.38;;
72156;SDS011;60035;52.122;5.406;2022-12-31T09:57:39;3.75;;;1.23;;
72156;SDS011;60035;52.122;5.406;2022-12-31T10:00:19;3.47;;;1.30;;
72156;SDS011;60035;52.122;5.406;2022-12-31T10:08:40;4.72;;;1.75;;
72156;SDS011;60035;52.122;5.406;2022-12-31T10:14:05;3.55;;;1.20;;
72156;SDS011;60035;52.122;5.406;2022-12-31T10:25:14;6.85;;;1.50;;
72156;SDS011;60035;52.122;5.406;2022-12-31T10:27:59;13.07;;;5.53;;
72156;SDS011;60035;52.122;5.406;2022-12-31T10:30:32;3.28;;;1.42;;
72156;SDS011;60035;52.122;5.406;2022-12-31T10:33:20;3.15;;;1.15;;
72156;SDS011;60035;52.122;5.406;2022-12-31T10:38:43;6.25;;;1.65;;
72156;SDS011;60035;52.122;5.406;2022-12-31T10:47:33;4.95;;;1.60;;
72156;SDS011;60035;52.122;5.406;2022-12-31T10:55:55;5.90;;;1.33;;
72156;SDS011;60035;52.122;5.406;2022-12-31T10:58:44;5.75;;;1.70;;
72156;SDS011;60035;52.122;5.406;2022-12-31T11:01:31;6.22;;;1.80;;
72156;SDS011;60035;52.122;5.406;2022-12-31T11:04:18;4.38;;;1.48;;
72156;SDS011;60035;52.122;5.406;2022-12-31T11:23:50;6.18;;;1.20;;
72156;SDS011;60035;52.122;5.406;2022-12-31T11:26:39;5.90;;;1.58;;
72156;SDS011;60035;52.122;5.406;2022-12-31T11:32:31;4.53;;;1.48;;
72156;SDS011;60035;52.122;5.406;2022-12-31T11:38:01;4.97;;;1.85;;
72156;SDS011;60035;52.122;5.406;2022-12-31T11:40:42;6.03;;;2.22;;
72156;SDS011;60035;52.122;5.406;2022-12-31T11:51:13;6.53;;;2.35;;
72156;SDS011;60035;52.122;5.406;2022-12-31T11:56:37;6.35;;;2.38;;
72156;SDS011;60035;52.122;5.406;2022-12-31T11:59:13;5.63;;;1.73;;
72156;SDS011;60035;52.122;5.406;2022-12-31T12:04:16;8.05;;;1.85;;
72156;SDS011;60035;52.122;5.406;2022-12-31T12:06:43;4.65;;;1.98;;
72156;SDS011;60035;52.122;5.406;2022-12-31T12:09:13;4.93;;;1.92;;
72156;SDS011;60035;52.122;5.406;2022-12-31T12:11:42;4.38;;;1.10;;
72156;SDS011;60035;52.122;5.406;2022-12-31T12:14:19;8.15;;;1.77;;
72156;SDS011;60035;52.122;5.406;2022-12-31T12:17:04;5.28;;;1.50;;
72156;SDS011;60035;52.122;5.406;2022-12-31T12:19:34;4.95;;;1.42;;
72156;SDS011;60035;52.122;5.406;2022-12-31T12:22:08;6.28;;;1.90;;
72156;SDS011;60035;52.122;5.406;2022-12-31T12:27:20;7.65;;;2.00;;
72156;SDS011;60035;52.122;5.406;2022-12-31T12:29:48;6.50;;;1.58;;
72156;SDS011;60035;52.122;5.406;2022-12-31T12:32:16;6.00;;;1.80;;
72156;SDS011;60035;52.122;5.406;2022-12-31T12:34:47;5.65;;;2.70;;
72156;SDS011;60035;52.122;5.406;2022-12-31T12:37:29;7.28;;;1.40;;
72156;SDS011;60035;52.122;5.406;2022-12-31T12:40:02;4.28;;;1.65;;
72156;SDS011;60035;52.122;5.406;2022-12-31T12:42:47;6.15;;;1.90;;
72156;SDS011;60035;52.122;5.406;2022-12-31T12:45:24;5.20;;;1.30;;
72156;SDS011;60035;52.122;5.406;2022-12-31T12:54:19;5.28;;;1.65;;
72156;SDS011;60035;52.122;5.406;2022-12-31T12:56:54;5.97;;;1.30;;
72156;SDS011;60035;52.122;5.406;2022-12-31T13:16:33;7.28;;;1.63;;
72156;SDS011;60035;52.122;5.406;2022-12-31T13:27:21;12.02;;;3.10;;
72156;SDS011;60035;52.122;5.406;2022-12-31T13:29:54;8.00;;;1.38;;
72156;SDS011;60035;52.122;5.406;2022-12-31T13:32:27;6.75;;;2.58;;
72156;SDS011;60035;52.122;5.406;2022-12-31T13:35:27;6.63;;;1.70;;
72156;SDS011;60035;52.122;5.406;2022-12-31T13:38:03;6.78;;;1.58;;
72156;SDS011;60035;52.122;5.406;2022-12-31T13:40:45;8.45;;;3.22;;
72156;SDS011;60035;52.122;5.406;2022-12-31T13:46:01;7.63;;;1.52;;
72156;SDS011;60035;52.122;5.406;2022-12-31T13:48:41;11.52;;;3.65;;
72156;SDS011;60035;52.122;5.406;2022-12-31T13:51:15;10.55;;;3.63;;
72156;SDS011;60035;52.122;5.406;2022-12-31T13:53:50;8.55;;;2.00;;
72156;SDS011;60035;52.122;5.406;2022-12-31T13:56:26;6.95;;;2.35;;
72156;SDS011;60035;52.122;5.406;2022-12-31T14:01:53;8.55;;;2.17;;
72156;SDS011;60035;52.122;5.406;2022-12-31T14:04:29;9.95;;;2.55;;
72156;SDS011;60035;52.122;5.406;2022-12-31T14:07:06;10.48;;;3.50;;
72156;SDS011;60035;52.122;5.406;2022-12-31T14:09:39;8.30;;;1.98;;
72156;SDS011;60035;52.122;5.406;2022-12-31T14:20:23;4.93;;;1.40;;
72156;SDS011;60035;52.122;5.406;2022-12-31T14:23:02;8.25;;;2.20;;
72156;SDS011;60035;52.122;5.406;2022-12-31T14:25:45;6.13;;;1.65;;
72156;SDS011;60035;52.122;5.406;2022-12-31T14:28:27;6.80;;;1.95;;
72156;SDS011;60035;52.122;5.406;2022-12-31T14:45:00;6.57;;;1.92;;
72156;SDS011;60035;52.122;5.406;2022-12-31T14:47:35;5.22;;;1.80;;
72156;SDS011;60035;52.122;5.406;2022-12-31T14:50:20;8.57;;;1.65;;
72156;SDS011;60035;52.122;5.406;2022-12-31T14:55:29;6.68;;;2.00;;
72156;SDS011;60035;52.122;5.406;2022-12-31T14:58:00;7.47;;;1.95;;
72156;SDS011;60035;52.122;5.406;2022-12-31T15:00:53;7.85;;;2.17;;
72156;SDS011;60035;52.122;5.406;2022-12-31T15:03:40;7.55;;;1.77;;
72156;SDS011;60035;52.122;5.406;2022-12-31T15:12:09;8.25;;;3.13;;
72156;SDS011;60035;52.122;5.406;2022-12-31T15:20:42;6.95;;;1.83;;
72156;SDS011;60035;52.122;5.406;2022-12-31T15:23:36;9.45;;;2.67;;
72156;SDS011;60035;52.122;5.406;2022-12-31T15:26:04;7.15;;;2.78;;
72156;SDS011;60035;52.122;5.406;2022-12-31T15:28:33;6.18;;;1.92;;
72156;SDS011;60035;52.122;5.406;2022-12-31T15:31:06;12.50;;;3.17;;
72156;SDS011;60035;52.122;5.406;2022-12-31T15:33:54;10.20;;;2.13;;
72156;SDS011;60035;52.122;5.406;2022-12-31T15:36:24;8.82;;;2.45;;
72156;SDS011;60035;52.122;5.406;2022-12-31T15:40:03;8.82;;;2.22;;
72156;SDS011;60035;52.122;5.406;2022-12-31T15:42:24;7.95;;;2.13;;
72156;SDS011;60035;52.122;5.406;2022-12-31T15:45:13;9.57;;;3.00;;
72156;SDS011;60035;52.122;5.406;2022-12-31T15:47:46;11.20;;;2.78;;
72156;SDS011;60035;52.122;5.406;2022-12-31T15:50:19;11.23;;;2.67;;
72156;SDS011;60035;52.122;5.406;2022-12-31T15:52:49;8.77;;;2.78;;
72156;SDS011;60035;52.122;5.406;2022-12-31T15:58:14;10.65;;;2.70;;
72156;SDS011;60035;52.122;5.406;2022-12-31T16:01:05;9.93;;;2.10;;
72156;SDS011;60035;52.122;5.406;2022-12-31T16:03:44;10.95;;;2.83;;
72156;SDS011;60035;52.122;5.406;2022-12-31T16:06:13;15.30;;;4.47;;
72156;SDS011;60035;52.122;5.406;2022-12-31T16:08:44;10.77;;;3.00;;
72156;SDS011;60035;52.122;5.406;2022-12-31T16:11:13;10.57;;;3.17;;
72156;SDS011;60035;52.122;5.406;2022-12-31T16:13:42;16.45;;;4.72;;
72156;SDS011;60035;52.122;5.406;2022-12-31T16:16:19;11.43;;;2.78;;
72156;SDS011;60035;52.122;5.406;2022-12-31T16:18:56;9.85;;;2.33;;
72156;SDS011;60035;52.122;5.406;2022-12-31T16:23:54;9.68;;;2.80;;
72156;SDS011;60035;52.122;5.406;2022-12-31T16:26:27;11.45;;;5.28;;
72156;SDS011;60035;52.122;5.406;2022-12-31T16:28:56;20.10;;;11.95;;
72156;SDS011;60035;52.122;5.406;2022-12-31T16:31:26;8.57;;;3.33;;
72156;SDS011;60035;52.122;5.406;2022-12-31T16:36:58;18.30;;;3.58;;
72156;SDS011;60035;52.122;5.406;2022-12-31T16:39:39;16.10;;;4.43;;
72156;SDS011;60035;52.122;5.406;2022-12-31T16:42:33;7.97;;;2.20;;
72156;SDS011;60035;52.122;5.406;2022-12-31T16:45:17;9.48;;;3.50;;
72156;SDS011;60035;52.122;5.406;2022-12-31T16:48:16;13.90;;;5.25;;
72156;SDS011;60035;52.122;5.406;2022-12-31T16:50:48;11.80;;;5.35;;
72156;SDS011;60035;52.122;5.406;2022-12-31T16:53:18;11.43;;;3.55;;
72156;SDS011;60035;52.122;5.406;2022-12-31T16:56:01;12.32;;;5.22;;
72156;SDS011;60035;52.122;5.406;2022-12-31T16:58:34;10.75;;;3.65;;
72156;SDS011;60035;52.122;5.406;2022-12-31T17:01:08;11.23;;;3.67;;
72156;SDS011;60035;52.122;5.406;2022-12-31T17:03:44;13.27;;;5.30;;
72156;SDS011;60035;52.122;5.406;2022-12-31T17:06:17;13.65;;;3.67;;
72156;SDS011;60035;52.122;5.406;2022-12-31T17:08:49;14.93;;;3.72;;
72156;SDS011;60035;52.122;5.406;2022-12-31T17:11:36;12.27;;;3.58;;
72156;SDS011;60035;52.122;5.406;2022-12-31T17:14:13;10.45;;;2.90;;
72156;SDS011;60035;52.122;5.406;2022-12-31T17:16:54;9.48;;;3.03;;
72156;SDS011;60035;52.122;5.406;2022-12-31T17:22:01;10.25;;;3.70;;
72156;SDS011;60035;52.122;5.406;2022-12-31T17:24:29;10.07;;;3.83;;
72156;SDS011;60035;52.122;5.406;2022-12-31T17:27:02;10.20;;;3.50;;
72156;SDS011;60035;52.122;5.406;2022-12-31T17:29:30;13.73;;;5.80;;
72156;SDS011;60035;52.122;5.406;2022-12-31T17:34:29;10.73;;;4.50;;
72156;SDS011;60035;52.122;5.406;2022-12-31T17:36:58;11.98;;;5.10;;
72156;SDS011;60035;52.122;5.406;2022-12-31T17:39:38;12.50;;;4.43;;
72156;SDS011;60035;52.122;5.406;2022-12-31T17:42:12;8.98;;;3.58;;
72156;SDS011;60035;52.122;5.406;2022-12-31T17:44:47;11.18;;;3.72;;
72156;SDS011;60035;52.122;5.406;2022-12-31T17:47:14;9.02;;;3.65;;
72156;SDS011;60035;52.122;5.406;2022-12-31T17:49:42;10.55;;;4.45;;
72156;SDS011;60035;52.122;5.406;2022-12-31T17:52:11;10.55;;;4.68;;
72156;SDS011;60035;52.122;5.406;2022-12-31T17:54:39;13.15;;;5.15;;
72156;SDS011;60035;52.122;5.406;2022-12-31T17:57:10;10.30;;;4.10;;
72156;SDS011;60035;52.122;5.406;2022-12-31T17:59:48;14.75;;;4.80;;
72156;SDS011;60035;52.122;5.406;2022-12-31T18:02:14;12.10;;;4.47;;
72156;SDS011;60035;52.122;5.406;2022-12-31T18:04:41;8.88;;;3.33;;
72156;SDS011;60035;52.122;5.406;2022-12-31T18:07:07;12.07;;;3.50;;
72156;SDS011;60035;52.122;5.406;2022-12-31T18:09:34;11.45;;;3.83;;
72156;SDS011;60035;52.122;5.406;2022-12-31T18:12:00;13.13;;;3.83;;
72156;SDS011;60035;52.122;5.406;2022-12-31T18:14:30;9.20;;;3.03;;
72156;SDS011;60035;52.122;5.406;2022-12-31T18:16:57;11.07;;;3.95;;
72156;SDS011;60035;52.122;5.406;2022-12-31T18:19:23;11.20;;;3.60;;
72156;SDS011;60035;52.122;5.406;2022-12-31T18:22:14;11.13;;;3.78;;
72156;SDS011;60035;52.122;5.406;2022-12-31T18:24:41;10.10;;;2.88;;
72156;SDS011;60035;52.122;5.406;2022-12-31T18:27:12;9.02;;;3.58;;
72156;SDS011;60035;52.122;5.406;2022-12-31T18:29:41;11.68;;;3.95;;
72156;SDS011;60035;52.122;5.406;2022-12-31T18:32:16;10.60;;;3.50;;
72156;SDS011;60035;52.122;5.406;2022-12-31T18:34:47;9.00;;;3.50;;
72156;SDS011;60035;52.122;5.406;2022-12-31T18:37:14;10.27;;;3.50;;
72156;SDS011;60035;52.122;5.406;2022-12-31T18:39:47;10.18;;;3.65;;
72156;SDS011;60035;52.122;5.406;2022-12-31T18:42:15;12.02;;;3.60;;
72156;SDS011;60035;52.122;5.406;2022-12-31T18:44:43;11.55;;;3.45;;
72156;SDS011;60035;52.122;5.406;2022-12-31T18:47:11;9.35;;;3.95;;
72156;SDS011;60035;52.122;5.406;2022-12-31T18:49:39;8.95;;;3.28;;
72156;SDS011;60035;52.122;5.406;2022-12-31T18:52:11;9.90;;;3.70;;
72156;SDS011;60035;52.122;5.406;2022-12-31T18:54:39;8.38;;;2.90;;
72156;SDS011;60035;52.122;5.406;2022-12-31T18:57:06;11.18;;;3.08;;
72156;SDS011;60035;52.122;5.406;2022-12-31T18:59:36;14.82;;;6.00;;
72156;SDS011;60035;52.122;5.406;2022-12-31T19:02:02;14.38;;;5.40;;
72156;SDS011;60035;52.122;5.406;2022-12-31T19:04:29;12.65;;;4.38;;
72156;SDS011;60035;52.122;5.406;2022-12-31T19:06:56;11.85;;;4.10;;
72156;SDS011;60035;52.122;5.406;2022-12-31T19:09:22;33.13;;;21.42;;
72156;SDS011;60035;52.122;5.406;2022-12-31T19:12:10;12.68;;;4.72;;
72156;SDS011;60035;52.122;5.406;2022-12-31T19:14:37;10.00;;;3.45;;
72156;SDS011;60035;52.122;5.406;2022-12-31T19:17:04;11.20;;;3.85;;
72156;SDS011;60035;52.122;5.406;2022-12-31T19:19:32;11.20;;;3.88;;
72156;SDS011;60035;52.122;5.406;2022-12-31T19:22:00;11.07;;;4.05;;
72156;SDS011;60035;52.122;5.406;2022-12-31T19:24:26;10.20;;;2.92;;
72156;SDS011;60035;52.122;5.406;2022-12-31T19:26:53;11.95;;;5.15;;
72156;SDS011;60035;52.122;5.406;2022-12-31T19:29:26;9.93;;;3.42;;
72156;SDS011;60035;52.122;5.406;2022-12-31T19:31:53;11.90;;;4.22;;
72156;SDS011;60035;52.122;5.406;2022-12-31T19:34:20;11.85;;;2.97;;
72156;SDS011;60035;52.122;5.406;2022-12-31T19:36:46;13.82;;;5.13;;